Time;durP1;ratioP1;P1;durP2;ratioP2;P2;SDS_P1;SDS_P2;PMS_P1;PMS_P2;Temp;Humidity;BMP_temperature;BMP_pressure;BME280_temperature;BME280_humidity;BME280_pressure;Samples;Min_cycle;Max_cycle;Signal;HPM_P1;HPM_P2
2023/05/04 00:04:53;;;;;;;9.18;7.22;;;;;;;8.34;100.00;102302.94;10317607;28;20045;-77
2023/05/04 00:09:53;;;;;;;8.57;6.75;;;;;;;8.32;100.00;102307.63;10333833;28;20058;-76
2023/05/04 00:14:54;;;;;;;8.48;7.53;;;;;;;8.24;100.00;102308.38;10334718;28;20038;-76
2023/05/04 00:19:54;;;;;;;18.33;7.72;;;;;;;8.23;100.00;102308.53;10335512;28;20046;-75
2023/05/04 00:24:55;;;;;;;8.00;5.35;;;;;;;8.16;100.00;102306.41;10317502;28;20038;-75
2023/05/04 00:29:55;;;;;;;11.65;8.30;;;;;;;8.15;100.00;102317.38;10334957;28;20121;-76
2023/05/04 00:34:56;;;;;;;10.88;9.40;;;;;;;8.06;100.00;102311.00;10333490;28;20066;-77
2023/05/04 00:39:56;;;;;;;14.75;9.32;;;;;;;7.98;100.00;102305.50;10333982;28;20042;-76
2023/05/04 00:44:57;;;;;;;9.48;7.82;;;;;;;7.92;100.00;102300.69;10317184;28;20355;-76
2023/05/04 00:49:57;;;;;;;13.45;7.38;;;;;;;7.88;100.00;102292.03;10317278;28;20030;-77
2023/05/04 00:54:59;;;;;;;7.82;7.13;;;;;;;7.84;100.00;102289.75;10316347;28;20034;-77
2023/05/04 00:59:59;;;;;;;14.05;9.05;;;;;;;7.82;100.00;102283.69;10300511;28;20117;-76
2023/05/04 01:05:00;;;;;;;14.10;10.10;;;;;;;7.80;100.00;102270.31;10316486;28;20022;-76
2023/05/04 01:10:06;;;;;;;11.07;7.88;;;;;;;7.81;100.00;102274.72;10316351;28;20050;-75
2023/05/04 01:15:08;;;;;;;22.90;9.10;;;;;;;7.79;100.00;102257.84;10316474;28;20045;-76
2023/05/04 01:20:09;;;;;;;11.52;9.40;;;;;;;7.75;100.00;102261.81;10299428;28;20166;-74
2023/05/04 01:25:09;;;;;;;10.55;9.32;;;;;;;7.65;100.00;102245.66;10333477;28;20149;-76
2023/05/04 01:30:17;;;;;;;11.20;9.05;;;;;;;7.65;100.00;102245.66;10333140;28;20026;-76
2023/05/04 01:35:18;;;;;;;10.73;9.30;;;;;;;7.55;100.00;102238.59;10299435;28;20508;-76
2023/05/04 01:40:18;;;;;;;12.43;9.70;;;;;;;7.52;100.00;102244.28;10318536;28;20031;-76
2023/05/04 01:45:19;;;;;;;12.57;9.05;;;;;;;7.53;100.00;102240.56;10349285;28;20034;-77
2023/05/04 01:50:19;;;;;;;18.67;9.80;;;;;;;7.48;100.00;102251.78;10351542;28;20061;-76
2023/05/04 01:55:20;;;;;;;11.65;10.23;;;;;;;7.39;100.00;102240.03;10343737;28;20050;-76
2023/05/04 02:00:20;;;;;;;16.23;9.20;;;;;;;7.41;100.00;102243.44;10321262;28;20093;-76
2023/05/04 02:05:20;;;;;;;13.10;8.13;;;;;;;7.39;100.00;102225.72;10331774;28;20400;-76
2023/05/04 02:10:21;;;;;;;11.18;8.35;;;;;;;7.32;100.00;102228.13;10332503;28;20061;-76
2023/05/04 02:15:21;;;;;;;13.35;10.30;;;;;;;7.30;100.00;102227.41;10330765;28;20077;-76
2023/05/04 02:20:22;;;;;;;19.00;9.57;;;;;;;7.26;100.00;102217.06;10335359;28;20130;-76
2023/05/04 02:25:22;;;;;;;15.20;9.63;;;;;;;7.26;100.00;102217.91;10338638;28;20045;-75
2023/05/04 02:30:22;;;;;;;11.00;7.65;;;;;;;7.22;100.00;102205.75;10322473;28;20371;-77
2023/05/04 02:35:23;;;;;;;8.45;7.57;;;;;;;7.13;100.00;102204.75;10337970;28;20030;-76
2023/05/04 02:40:23;;;;;;;10.68;8.73;;;;;;;7.14;100.00;102201.06;10305512;28;20038;-76
2023/05/04 02:45:24;;;;;;;9.93;8.77;;;;;;;7.13;100.00;102202.06;10338932;28;20092;-75
2023/05/04 02:50:24;;;;;;;12.15;9.02;;;;;;;7.05;100.00;102206.44;10320943;28;20375;-77
2023/05/04 02:55:25;;;;;;;16.85;10.52;;;;;;;7.02;100.00;102194.13;10337921;28;20054;-75
2023/05/04 03:00:25;;;;;;;16.42;9.60;;;;;;;6.96;100.00;102206.31;10288084;28;20053;-76
2023/05/04 03:05:26;;;;;;;13.27;10.75;;;;;;;6.89;100.00;102207.88;10336955;28;20034;-75
2023/05/04 03:10:26;;;;;;;14.75;9.73;;;;;;;6.88;100.00;102205.31;10295423;28;20138;-76
2023/05/04 03:15:26;;;;;;;9.52;8.60;;;;;;;6.84;100.00;102198.53;10296878;28;20185;-76
2023/05/04 03:20:27;;;;;;;12.90;8.27;;;;;;;6.83;100.00;102200.38;10296471;28;20035;-75
2023/05/04 03:25:27;;;;;;;13.80;8.70;;;;;;;6.79;100.00;102188.16;10279453;28;20393;-76
2023/05/04 03:30:28;;;;;;;18.40;8.93;;;;;;;6.79;100.00;102198.94;10295509;28;20049;-75
2023/05/04 03:35:28;;;;;;;11.48;8.55;;;;;;;6.66;100.00;102183.06;10298385;28;20106;-76
2023/05/04 03:40:29;;;;;;;12.13;9.60;;;;;;;6.69;100.00;102198.06;10296369;28;20447;-75
2023/05/04 03:45:29;;;;;;;7.80;6.97;;;;;;;6.65;100.00;102181.34;10278989;28;20101;-75
2023/05/04 03:50:30;;;;;;;15.38;8.85;;;;;;;6.60;100.00;102172.84;10295501;28;20418;-76
2023/05/04 03:55:31;;;;;;;13.32;10.68;;;;;;;6.63;100.00;102172.56;10294488;28;20129;-76
2023/05/04 04:00:31;;;;;;;11.40;7.72;;;;;;;6.57;100.00;102164.19;10295411;28;20387;-76
2023/05/04 04:05:31;;;;;;;16.75;9.60;;;;;;;6.55;100.00;102161.66;10293140;28;20054;-76
2023/05/04 04:10:32;;;;;;;11.50;9.20;;;;;;;6.53;100.00;102155.56;10335327;28;20155;-76
2023/05/04 04:15:33;;;;;;;10.70;9.65;;;;;;;6.51;100.00;102158.41;10329408;28;20034;-76
2023/05/04 04:20:33;;;;;;;15.13;8.80;;;;;;;6.50;100.00;102156.69;10345117;28;20026;-77
2023/05/04 04:25:34;;;;;;;12.07;9.13;;;;;;;6.52;100.00;102143.94;10335185;28;20038;-78
2023/05/04 04:30:34;;;;;;;15.48;9.32;;;;;;;6.57;100.00;102134.59;10317526;28;20073;-76
2023/05/04 04:35:34;;;;;;;15.23;9.00;;;;;;;6.59;100.00;102144.25;10317028;28;20049;-77
2023/05/04 04:40:35;;;;;;;15.80;10.68;;;;;;;6.61;100.00;102138.72;10317370;28;20066;-75
2023/05/04 04:45:35;;;;;;;14.02;9.45;;;;;;;6.63;100.00;102145.66;10316353;28;20060;-76
2023/05/04 04:50:39;;;;;;;11.48;10.27;;;;;;;6.67;100.00;102136.31;10333635;28;20467;-78
2023/05/04 04:55:40;;;;;;;15.25;9.25;;;;;;;6.76;100.00;102131.91;10315641;28;20046;-75
2023/05/04 05:00:41;;;;;;;12.55;8.77;;;;;;;6.83;100.00;102141.13;10334728;28;20031;-75
2023/05/04 05:05:41;;;;;;;17.40;8.48;;;;;;;6.93;100.00;102133.91;10317008;28;20362;-75
2023/05/04 05:10:42;;;;;;;8.63;7.18;;;;;;;6.95;100.00;102131.88;10317074;28;20073;-77
2023/05/04 05:15:42;;;;;;;9.68;7.07;;;;;;;6.99;100.00;102130.63;10317849;28;20073;-74
2023/05/04 05:20:43;;;;;;;13.88;8.65;;;;;;;7.19;100.00;102131.44;10317988;28;20022;-76
2023/05/04 05:25:43;;;;;;;17.42;8.70;;;;;;;7.36;100.00;102134.38;10333682;28;20053;-75
2023/05/04 05:30:43;;;;;;;8.18;6.93;;;;;;;7.66;100.00;102120.66;10316080;28;20031;-77
2023/05/04 05:35:44;;;;;;;9.63;8.10;;;;;;;7.68;100.00;102145.59;10316029;28;20034;-76
2023/05/04 05:40:45;;;;;;;13.05;8.82;;;;;;;7.73;100.00;102138.94;10332948;28;20034;-76
2023/05/04 05:45:45;;;;;;;9.85;8.82;;;;;;;7.73;100.00;102139.78;10315514;28;20129;-76
2023/05/04 05:50:45;;;;;;;10.90;8.05;;;;;;;7.86;100.00;102128.66;10333406;28;20038;-76
2023/05/04 05:55:46;;;;;;;11.18;8.05;;;;;;;8.06;100.00;102130.22;10303667;28;20034;-75
2023/05/04 06:00:47;;;;;;;17.13;10.00;;;;;;;8.13;100.00;102120.53;10322764;28;20085;-76
2023/05/04 06:05:47;;;;;;;9.27;7.57;;;;;;;8.33;100.00;102115.03;10340760;28;20078;-76
2023/05/04 06:10:50;;;;;;;12.05;8.07;;;;;;;8.74;100.00;102118.13;10338212;28;20077;-76
2023/05/04 06:15:51;;;;;;;7.85;5.80;;;;;;;9.18;100.00;102124.38;10340814;28;20039;-76
2023/05/04 06:20:59;;;;;;;16.25;8.13;;;;;;;9.58;100.00;102104.03;10305485;28;20395;-75
2023/05/04 06:25:59;;;;;;;10.73;7.65;;;;;;;10.29;98.00;102110.03;10322217;28;20053;-76
2023/05/04 06:31:00;;;;;;;12.43;7.93;;;;;;;11.17;90.61;102102.13;10338672;28;20037;-76
2023/05/04 06:36:01;;;;;;;8.57;7.50;;;;;;;11.21;88.57;102095.31;10308087;28;20050;-77
2023/05/04 06:41:01;;;;;;;7.45;6.82;;;;;;;10.98;87.38;102099.78;10350891;28;20449;-75
2023/05/04 06:46:02;;;;;;;11.15;7.38;;;;;;;10.87;88.29;102100.94;10336159;28;20034;-76
2023/05/04 06:51:03;;;;;;;10.57;7.38;;;;;;;10.92;89.15;102085.03;10326341;28;20034;-76
2023/05/04 06:56:04;;;;;;;9.77;6.82;;;;;;;11.03;88.04;102089.25;10339488;28;20049;-77
2023/05/04 07:01:07;;;;;;;13.00;8.57;;;;;;;11.36;85.57;102073.78;10321173;28;20038;-75
2023/05/04 07:06:08;;;;;;;10.32;6.35;;;;;;;11.54;84.97;102073.53;10305240;28;20177;-76
2023/05/04 07:11:09;;;;;;;10.70;7.85;;;;;;;11.89;85.18;102060.53;10338605;28;20042;-77
2023/05/04 07:16:09;;;;;;;12.60;7.70;;;;;;;12.17;82.23;102053.56;10337843;28;20037;-75
2023/05/04 07:21:13;;;;;;;10.90;6.93;;;;;;;12.22;82.13;102051.16;10337768;28;20033;-76
2023/05/04 07:26:13;;;;;;;7.95;6.72;;;;;;;12.47;80.73;102048.25;10321522;28;20500;-76
2023/05/04 07:31:14;;;;;;;9.40;6.43;;;;;;;12.91;78.81;102051.09;10320126;28;20042;-76
2023/05/04 07:36:15;;;;;;;13.73;8.18;;;;;;;13.54;76.38;102051.63;10337465;28;20037;-77
2023/05/04 07:41:15;;;;;;;11.75;6.18;;;;;;;13.92;70.71;102035.16;10303792;28;20038;-78
2023/05/04 07:46:16;;;;;;;7.35;6.45;;;;;;;13.48;70.95;102014.28;10336930;28;20039;-77
2023/05/04 07:51:17;;;;;;;11.82;7.60;;;;;;;13.73;72.56;102015.66;10304983;28;20069;-78
2023/05/04 08:02:29;;;;;;;10.82;7.05;;;;;;;14.24;67.80;102003.84;10336610;28;20393;-76
2023/05/04 08:07:30;;;;;;;8.23;6.20;;;;;;;14.34;66.04;102003.50;10318895;28;20069;-77
2023/05/04 08:12:30;;;;;;;6.30;5.63;;;;;;;14.72;63.63;102005.97;10319773;28;20038;-76
2023/05/04 08:17:31;;;;;;;12.85;7.53;;;;;;;15.29;60.28;101997.53;10303419;28;20116;-77
2023/05/04 08:22:32;;;;;;;6.70;5.88;;;;;;;15.67;58.23;102009.91;10338109;28;20030;-75
2023/05/04 08:27:32;;;;;;;9.70;6.10;;;;;;;16.31;56.10;102001.25;10337560;28;20128;-76
2023/05/04 08:32:33;;;;;;;8.20;5.53;;;;;;;16.88;55.68;101987.97;10340008;28;20034;-76
2023/05/04 08:37:33;;;;;;;6.45;5.65;;;;;;;17.31;54.20;101984.75;10338553;28;20034;-77
2023/05/04 08:42:34;;;;;;;7.15;5.93;;;;;;;17.35;54.14;101970.38;10322386;28;20113;-76
2023/05/04 08:47:34;;;;;;;8.48;5.18;;;;;;;17.72;50.88;101956.94;10321214;28;20034;-76
2023/05/04 08:52:36;;;;;;;4.78;4.35;;;;;;;18.34;50.59;101947.03;10323047;28;20112;-77
2023/05/04 08:57:37;;;;;;;17.55;6.43;;;;;;;19.12;50.32;101948.44;10341728;28;20129;-76
2023/05/04 09:02:37;;;;;;;13.38;6.15;;;;;;;19.35;48.58;101947.72;10321530;28;20037;-77
2023/05/04 09:07:38;;;;;;;8.07;6.75;;;;;;;19.08;46.77;101941.75;10323535;28;20060;-77
2023/05/04 09:12:38;;;;;;;9.48;6.10;;;;;;;19.50;47.60;101933.59;10344332;28;20441;-77
2023/05/04 09:17:38;;;;;;;9.65;5.90;;;;;;;19.68;48.54;101938.22;10355869;28;20034;-77
2023/05/04 09:22:39;;;;;;;11.48;6.15;;;;;;;20.29;47.31;101920.56;10330093;28;20038;-76
2023/05/04 09:27:41;;;;;;;8.00;5.95;;;;;;;20.12;45.77;101909.44;10324598;28;20066;-76
2023/05/04 09:32:48;;;;;;;6.22;5.60;;;;;;;20.56;45.64;101912.72;10335100;28;20486;-76
2023/05/04 09:37:48;;;;;;;7.93;5.65;;;;;;;20.77;43.99;101908.53;10318969;28;20097;-76
2023/05/04 09:42:55;;;;;;;6.10;5.28;;;;;;;20.65;44.08;101903.03;10333684;28;20085;-75
2023/05/04 09:47:56;;;;;;;4.95;4.55;;;;;;;20.70;44.11;101899.56;10352458;28;20034;-76
2023/05/04 09:52:56;;;;;;;5.55;4.60;;;;;;;20.90;44.67;101893.69;10314550;28;20038;-75
2023/05/04 09:57:57;;;;;;;8.52;5.88;;;;;;;21.65;44.64;101872.59;10334329;28;20104;-76
2023/05/04 10:02:57;;;;;;;6.22;5.55;;;;;;;21.87;42.75;101865.28;10317319;28;20049;-76
2023/05/04 10:07:58;;;;;;;9.13;6.00;;;;;;;21.82;41.35;101860.50;10331938;28;20046;-76
2023/05/04 10:12:59;;;;;;;5.85;5.20;;;;;;;21.19;42.66;101858.75;10329426;28;20038;-75
2023/05/04 10:18:12;;;;;;;8.68;5.40;;;;;;;21.61;42.75;101844.69;10345464;28;20042;-75
2023/05/04 10:23:28;;;;;;;5.15;4.55;;;;;;;21.55;41.40;101834.66;10346182;28;20030;-77
2023/05/04 10:28:42;;;;;;;11.13;6.38;;;;;;;21.41;42.73;101828.63;10346507;28;20037;-76
2023/05/04 10:33:42;;;;;;;8.10;5.90;;;;;;;22.30;42.48;101822.38;10329027;28;20030;-76
2023/05/04 10:38:42;;;;;;;5.43;4.93;;;;;;;22.23;40.90;101818.97;10347671;28;20066;-76
2023/05/04 10:43:47;;;;;;;6.45;5.68;;;;;;;22.67;42.09;101808.81;10330267;28;20034;-77
2023/05/04 10:48:48;;;;;;;6.88;6.13;;;;;;;22.86;40.65;101780.88;10329920;28;20133;-77
2023/05/04 10:53:49;;;;;;;7.63;5.53;;;;;;;22.35;40.43;101800.38;10326202;28;20065;-75
2023/05/04 10:58:50;;;;;;;6.18;5.60;;;;;;;22.32;40.82;101778.00;10325860;28;20033;-77
2023/05/04 11:03:50;;;;;;;7.10;6.18;;;;;;;22.57;40.64;101763.69;10345641;28;20230;-76
2023/05/04 11:08:58;;;;;;;8.38;5.78;;;;;;;22.83;40.43;101779.47;10328506;28;20046;-76
2023/05/04 11:13:58;;;;;;;6.40;5.32;;;;;;;22.94;39.84;101770.25;10343279;28;20030;-77
2023/05/04 11:19:08;;;;;;;9.55;6.50;;;;;;;22.42;39.42;101770.66;10323647;28;20406;-75
2023/05/04 11:24:08;;;;;;;5.78;5.22;;;;;;;22.29;39.91;101760.00;10324705;28;20027;-77
2023/05/04 11:29:15;;;;;;;5.38;4.88;;;;;;;21.85;41.80;101748.03;10326576;28;20129;-75
2023/05/04 11:34:19;;;;;;;7.72;6.10;;;;;;;22.66;40.74;101729.03;10325186;28;20038;-76
2023/05/04 11:39:20;;;;;;;7.03;6.32;;;;;;;23.59;40.96;101720.56;10337863;28;20038;-75
2023/05/04 11:44:21;;;;;;;6.07;5.53;;;;;;;24.00;39.48;101720.88;10339165;28;20030;-75
2023/05/04 11:49:21;;;;;;;12.38;7.20;;;;;;;24.10;38.48;101712.63;10365599;28;20446;-75
2023/05/04 11:54:22;;;;;;;7.95;7.07;;;;;;;23.69;39.37;101697.69;10324292;28;20065;-75
2023/05/04 11:59:22;;;;;;;7.20;6.43;;;;;;;23.74;39.48;101690.28;10323062;28;20120;-78
2023/05/04 12:04:23;;;;;;;8.65;7.60;;;;;;;23.74;39.53;101689.41;10340424;28;20030;-77
2023/05/04 12:09:23;;;;;;;11.25;7.57;;;;;;;24.21;38.37;101675.56;10307702;28;20100;-78
2023/05/04 12:14:27;;;;;;;7.43;6.70;;;;;;;24.09;39.02;101681.34;10321105;28;20042;-76
2023/05/04 12:19:27;;;;;;;15.38;7.50;;;;;;;24.29;38.84;101664.00;10338940;28;20491;-75
2023/05/04 12:24:27;;;;;;;8.80;6.65;;;;;;;24.18;38.20;101655.91;10337883;28;20065;-75
2023/05/04 12:29:28;;;;;;;7.20;6.50;;;;;;;23.81;38.48;101645.78;10318565;28;20062;-75
2023/05/04 12:34:29;;;;;;;7.30;6.60;;;;;;;23.63;38.86;101647.03;10333688;28;20034;-76
2023/05/04 12:39:31;;;;;;;8.52;7.55;;;;;;;23.78;39.81;101629.72;10333975;28;20122;-76
2023/05/04 12:44:32;;;;;;;15.57;6.85;;;;;;;23.90;39.00;101622.06;10334420;28;20050;-75
2023/05/04 12:49:33;;;;;;;15.55;7.82;;;;;;;24.20;38.75;101618.56;10334284;28;20034;-75
2023/05/04 12:54:33;;;;;;;7.57;6.88;;;;;;;24.34;38.05;101613.34;10333899;28;20035;-76
2023/05/04 12:59:33;;;;;;;14.85;9.27;;;;;;;24.16;40.02;101608.31;10333382;28;20343;-76
2023/05/04 13:04:34;;;;;;;16.42;9.07;;;;;;;23.77;39.05;101595.72;10301025;28;20121;-76
2023/05/04 13:09:35;;;;;;;15.25;8.93;;;;;;;23.70;40.37;101584.03;10299686;28;20054;-76
2023/05/04 13:14:35;;;;;;;12.02;9.00;;;;;;;23.64;39.17;101568.50;10333907;28;20096;-75
2023/05/04 13:19:36;;;;;;;8.63;7.93;;;;;;;23.35;38.81;101574.41;10334334;28;20038;-75
2023/05/04 13:24:36;;;;;;;18.48;9.85;;;;;;;23.65;39.93;101539.75;10316077;28;20057;-76
2023/05/04 13:29:36;;;;;;;20.00;10.05;;;;;;;23.20;40.70;101530.94;10334369;28;20095;-76
2023/05/04 13:34:37;;;;;;;10.98;9.65;;;;;;;22.55;42.17;101523.78;10315918;28;20053;-76
2023/05/04 13:39:40;;;;;;;12.88;10.13;;;;;;;22.59;41.14;101521.31;10333872;28;20070;-75
2023/05/04 13:44:43;;;;;;;12.07;9.27;;;;;;;22.11;42.09;101525.81;10334439;28;20435;-75
2023/05/04 13:49:44;;;;;;;13.30;10.63;;;;;;;22.38;42.73;101498.25;10334545;28;20038;-75
2023/05/04 13:54:45;;;;;;;16.05;12.90;;;;;;;23.43;40.33;101491.00;10333912;28;20328;-75
2023/05/04 13:59:45;;;;;;;12.25;9.15;;;;;;;24.08;38.76;101505.34;10319696;28;20039;-75
2023/05/04 14:04:45;;;;;;;12.15;10.45;;;;;;;23.94;39.36;101481.25;10320219;28;20382;-74
2023/05/04 14:09:46;;;;;;;14.75;10.60;;;;;;;24.53;38.09;101469.72;10323834;28;20227;-76
2023/05/04 14:14:47;;;;;;;19.33;11.20;;;;;;;24.74;36.69;101476.06;10335824;28;20030;-75
2023/05/04 14:19:47;;;;;;;11.85;10.65;;;;;;;25.04;36.96;101484.31;10329364;28;20042;-77
2023/05/04 14:24:48;;;;;;;14.68;10.40;;;;;;;24.54;35.98;101466.69;10324693;28;20054;-75
2023/05/04 14:29:49;;;;;;;19.20;11.38;;;;;;;24.49;35.86;101452.00;10326234;28;20427;-76
2023/05/04 14:34:49;;;;;;;16.58;10.35;;;;;;;24.19;37.22;101458.34;10342062;28;20042;-76
2023/05/04 14:39:50;;;;;;;16.52;10.82;;;;;;;24.37;35.51;101441.16;10340934;28;20062;-76
2023/05/04 14:44:51;;;;;;;15.75;12.32;;;;;;;24.13;36.67;101443.66;10339185;28;20041;-77
2023/05/04 14:49:52;;;;;;;21.10;10.70;;;;;;;24.18;35.84;101437.28;10341845;28;20327;-76
2023/05/04 14:54:52;;;;;;;11.00;9.48;;;;;;;23.77;37.20;101415.94;10322375;28;20042;-77
2023/05/04 14:59:53;;;;;;;24.40;11.70;;;;;;;23.28;36.57;101418.25;10339368;28;20096;-76
2023/05/04 15:04:54;;;;;;;19.15;11.30;;;;;;;22.64;38.67;101411.78;10337329;28;20097;-74
2023/05/04 15:09:54;;;;;;;13.73;9.98;;;;;;;22.63;39.79;101406.53;10340841;28;20089;-75
2023/05/04 15:14:54;;;;;;;18.27;12.32;;;;;;;22.87;39.12;101399.50;10322722;28;20031;-76
2023/05/04 15:19:55;;;;;;;13.93;11.18;;;;;;;23.30;38.77;101382.88;10338811;28;20102;-76
2023/05/04 15:24:55;;;;;;;16.73;10.52;;;;;;;23.09;38.98;101388.31;10321153;28;20045;-78
2023/05/04 15:29:56;;;;;;;10.43;9.20;;;;;;;23.02;37.66;101384.16;10320465;28;20096;-77
2023/05/04 15:34:57;;;;;;;15.23;7.93;;;;;;;22.93;38.91;101386.56;10321928;28;20037;-76
2023/05/04 15:39:57;;;;;;;8.82;8.02;;;;;;;23.12;37.97;101379.50;10304792;28;20045;-76
2023/05/04 15:44:57;;;;;;;7.25;6.55;;;;;;;23.03;37.70;101372.00;10321641;28;20034;-76
2023/05/04 15:49:58;;;;;;;10.40;8.50;;;;;;;22.84;36.79;101371.59;10320553;28;20070;-75
2023/05/04 15:54:59;;;;;;;7.65;6.80;;;;;;;23.25;36.94;101372.63;10321012;28;20073;-75
2023/05/04 16:00:01;;;;;;;6.45;5.57;;;;;;;23.31;36.00;101366.03;10335948;28;20194;-76
2023/05/04 16:05:01;;;;;;;10.73;6.38;;;;;;;22.93;36.84;101358.94;10319213;28;20061;-74
2023/05/04 16:10:02;;;;;;;10.05;7.05;;;;;;;22.49;37.98;101349.06;10337381;28;20089;-76
2023/05/04 16:15:03;;;;;;;7.68;6.45;;;;;;;22.27;38.36;101356.59;10319076;28;20463;-76
2023/05/04 16:20:04;;;;;;;8.63;7.43;;;;;;;22.11;37.81;101374.09;10318498;28;20038;-74
2023/05/04 16:25:05;;;;;;;7.75;5.78;;;;;;;22.03;38.29;101356.94;10336931;28;20062;-76
2023/05/04 16:30:06;;;;;;;8.48;6.78;;;;;;;22.03;38.77;101367.97;10337331;28;20529;-74
2023/05/04 16:35:07;;;;;;;9.68;7.97;;;;;;;21.94;39.19;101353.00;10346368;28;20109;-76
2023/05/04 16:40:12;;;;;;;9.45;7.32;;;;;;;21.91;39.50;101358.22;10343176;28;20077;-76
2023/05/04 16:45:13;;;;;;;7.23;5.87;;;;;;;21.83;40.74;101351.25;10344063;28;20034;-76
2023/05/04 16:50:13;;;;;;;12.88;8.63;;;;;;;21.77;41.28;101352.31;10320873;28;20053;-76
2023/05/04 16:55:14;;;;;;;17.70;10.43;;;;;;;21.67;41.63;101347.53;10336586;28;20031;-75
2023/05/04 17:00:15;;;;;;;18.27;7.15;;;;;;;21.68;41.84;101343.66;10319604;28;20041;-77
2023/05/04 17:05:15;;;;;;;14.70;8.85;;;;;;;21.76;42.11;101350.63;10318305;28;20153;-77
2023/05/04 17:10:18;;;;;;;11.25;7.43;;;;;;;21.83;42.01;101343.00;10334437;28;20081;-76
2023/05/04 17:15:19;;;;;;;12.05;8.48;;;;;;;21.83;42.46;101352.09;10333734;28;20030;-76
2023/05/04 17:20:20;;;;;;;17.25;8.70;;;;;;;21.64;44.44;101338.97;10334887;28;20049;-77
2023/05/04 17:25:20;;;;;;;8.88;7.95;;;;;;;21.36;45.76;101335.34;10316281;28;20115;-74
2023/05/04 17:30:21;;;;;;;13.32;9.45;;;;;;;21.24;46.19;101340.97;10317903;28;20458;-75
2023/05/04 17:35:22;;;;;;;13.23;11.38;;;;;;;21.33;46.28;101336.66;10335638;28;20037;-76
2023/05/04 17:40:23;;;;;;;17.10;10.88;;;;;;;21.38;46.52;101335.94;10335801;28;20034;-75
2023/05/04 17:45:24;;;;;;;15.68;10.70;;;;;;;21.33;46.30;101335.84;10303121;28;20046;-76
2023/05/04 17:50:24;;;;;;;16.98;10.35;;;;;;;21.21;46.84;101344.25;10336759;28;20038;-76
2023/05/04 17:55:25;;;;;;;14.35;10.52;;;;;;;21.06;47.44;101333.88;10343552;28;20038;-76
2023/05/04 18:00:26;;;;;;;9.73;8.73;;;;;;;20.89;47.78;101344.13;10324825;28;20042;-75
2023/05/04 18:05:28;;;;;;;18.95;10.85;;;;;;;20.81;48.06;101350.09;10342220;28;20039;-75
2023/05/04 18:10:29;;;;;;;15.13;9.57;;;;;;;20.67;48.76;101347.69;10325061;28;20085;-75
2023/05/04 18:15:29;;;;;;;14.60;10.40;;;;;;;20.51;49.38;101340.28;10325084;28;20038;-75
2023/05/04 18:20:29;;;;;;;17.20;11.85;;;;;;;20.32;49.69;101334.22;10324825;28;20035;-75
2023/05/04 18:25:30;;;;;;;20.80;9.73;;;;;;;20.09;50.55;101343.47;10341573;28;20047;-76
2023/05/04 18:30:30;;;;;;;17.42;10.30;;;;;;;19.90;51.36;101350.31;10340471;28;20552;-74
2023/05/04 18:35:31;;;;;;;15.60;9.82;;;;;;;19.78;51.94;101344.03;10306463;28;20168;-76
2023/05/04 18:40:31;;;;;;;10.38;9.00;;;;;;;19.69;52.09;101347.22;10307456;28;20026;-76
2023/05/04 18:45:32;;;;;;;12.52;9.27;;;;;;;19.60;52.66;101353.31;10323213;28;20046;-75
2023/05/04 18:50:32;;;;;;;16.52;10.52;;;;;;;19.48;53.19;101345.97;10341491;28;20034;-75
2023/05/04 18:55:33;;;;;;;18.23;10.50;;;;;;;19.40;53.34;101345.50;10306636;28;20038;-75
2023/05/04 19:00:34;;;;;;;10.65;9.55;;;;;;;19.37;53.41;101346.00;10340483;28;20073;-75
2023/05/04 19:05:34;;;;;;;15.50;9.50;;;;;;;19.27;53.83;101353.00;10332806;28;20092;-76
2023/05/04 19:10:35;;;;;;;14.35;8.35;;;;;;;19.20;54.50;101360.50;10311071;28;20106;-75
2023/05/04 19:15:35;;;;;;;11.73;9.50;;;;;;;19.18;54.43;101357.19;10301577;28;20038;-76
2023/05/04 19:20:36;;;;;;;20.50;10.45;;;;;;;19.15;54.53;101349.44;10300307;28;20045;-77
2023/05/04 19:25:37;;;;;;;16.25;10.02;;;;;;;19.03;55.57;101356.88;10281234;28;20443;-75
2023/05/04 19:30:38;;;;;;;13.90;10.60;;;;;;;19.00;56.18;101363.69;10298361;28;20180;-78
2023/05/04 19:35:38;;;;;;;14.30;9.20;;;;;;;18.95;56.50;101362.72;10280981;28;20435;-74
2023/05/04 19:40:39;;;;;;;12.02;8.65;;;;;;;18.95;56.74;101362.72;10298019;28;20156;-75
2023/05/04 19:45:39;;;;;;;12.25;10.57;;;;;;;18.93;57.52;101367.66;10299005;28;20038;-77
2023/05/04 19:50:40;;;;;;;15.98;10.40;;;;;;;18.87;57.78;101374.94;10297848;28;20082;-75
2023/05/04 19:55:41;;;;;;;15.50;9.50;;;;;;;18.81;58.01;101371.22;10295679;28;20120;-76
2023/05/04 20:00:41;;;;;;;7.80;6.70;;;;;;;18.70;58.45;101369.31;10297435;28;20034;-77
2023/05/04 20:05:42;;;;;;;19.55;9.18;;;;;;;18.66;58.77;101359.88;10295835;28;20035;-75
2023/05/04 20:10:42;;;;;;;16.60;9.50;;;;;;;18.68;58.79;101368.72;10312163;28;20058;-76
2023/05/04 20:15:43;;;;;;;18.10;10.13;;;;;;;18.63;59.16;101370.50;10296296;28;20039;-76
2023/05/04 20:20:44;;;;;;;10.60;9.38;;;;;;;18.66;58.90;101370.84;10296182;28;20031;-77
2023/05/04 20:25:45;;;;;;;10.07;8.80;;;;;;;18.60;58.84;101366.31;10296111;28;20042;-75
2023/05/04 20:30:45;;;;;;;14.60;9.43;;;;;;;18.48;59.63;101371.00;10296859;28;20045;-76
2023/05/04 20:35:46;;;;;;;14.00;8.65;;;;;;;18.39;59.94;101369.69;10295217;28;20455;-76
2023/05/04 20:40:46;;;;;;;15.88;9.18;;;;;;;18.35;59.59;101366.59;10277842;28;20035;-76
2023/05/04 20:45:47;;;;;;;14.57;8.80;;;;;;;18.30;60.69;101358.22;10294560;28;20031;-75
2023/05/04 20:50:47;;;;;;;10.35;7.65;;;;;;;18.35;60.09;101355.63;10295645;28;20042;-75
2023/05/04 20:55:48;;;;;;;17.90;9.07;;;;;;;18.34;58.61;101349.28;10296478;28;20046;-76
2023/05/04 21:00:49;;;;;;;14.45;7.88;;;;;;;18.31;58.59;101349.78;10279545;28;20090;-76
2023/05/04 21:05:49;;;;;;;10.98;7.65;;;;;;;18.22;57.93;101350.34;10294732;28;20096;-75
2023/05/04 21:10:50;;;;;;;10.85;8.57;;;;;;;18.13;58.00;101352.63;10334314;28;20058;-74
2023/05/04 21:15:51;;;;;;;8.75;7.03;;;;;;;18.05;57.76;101351.06;10335071;28;20046;-76
2023/05/04 21:20:51;;;;;;;13.75;8.95;;;;;;;18.05;57.80;101367.50;10344298;28;20038;-75
2023/05/04 21:25:59;;;;;;;13.40;7.13;;;;;;;17.97;58.14;101386.22;10349358;28;20042;-75
2023/05/04 21:30:59;;;;;;;10.75;7.65;;;;;;;18.01;58.46;101376.44;10346083;28;20142;-74
2023/05/04 21:36:09;;;;;;;9.35;7.97;;;;;;;18.05;58.46;101377.63;10348530;28;20026;-74
2023/05/04 21:41:13;;;;;;;9.75;7.55;;;;;;;18.06;57.87;101365.59;10353384;28;20035;-74
2023/05/04 21:46:14;;;;;;;12.82;7.78;;;;;;;18.03;57.52;101352.38;10329040;28;20463;-73
2023/05/04 21:51:14;;;;;;;17.80;11.52;;;;;;;17.96;57.54;101352.47;10343638;28;20061;-75
2023/05/04 21:56:15;;;;;;;18.23;9.00;;;;;;;17.81;57.73;101350.19;10347928;28;20125;-76
2023/05/04 22:01:15;;;;;;;14.43;9.57;;;;;;;17.71;58.39;101360.84;10333968;28;20034;-74
2023/05/04 22:06:16;;;;;;;10.27;8.68;;;;;;;17.60;58.99;101362.47;10314225;28;20046;-76
2023/05/04 22:11:16;;;;;;;13.68;9.73;;;;;;;17.56;58.84;101363.19;10334037;28;20026;-74
2023/05/04 22:16:19;;;;;;;16.92;9.07;;;;;;;17.67;60.45;101341.28;10331200;28;20035;-75
2023/05/04 22:21:19;;;;;;;13.52;8.68;;;;;;;17.84;60.90;101371.63;10346611;28;20085;-75
2023/05/04 22:26:20;;;;;;;11.13;8.30;;;;;;;17.95;60.78;101383.69;10346359;28;20058;-76
2023/05/04 22:31:20;;;;;;;10.35;8.95;;;;;;;18.01;60.74;101379.19;10329270;28;20031;-74
2023/05/04 22:36:21;;;;;;;9.07;7.90;;;;;;;18.01;60.38;101370.97;10328705;28;20030;-76
2023/05/04 22:41:21;;;;;;;12.55;9.45;;;;;;;17.97;60.77;101367.84;10329267;28;20038;-75
2023/05/04 22:46:24;;;;;;;9.98;8.63;;;;;;;17.88;61.08;101378.31;10345832;28;20038;-77
2023/05/04 22:51:24;;;;;;;16.13;8.02;;;;;;;17.78;61.98;101371.75;10327463;28;20034;-76
2023/05/04 22:56:25;;;;;;;14.02;8.15;;;;;;;17.72;63.54;101375.38;10341744;28;20049;-75